sensor_id;sensor_type;location;lat;lon;timestamp;temperature;humidity
19232;DHT22;9750;48.730;10.294;2023-04-01T00:00:59;9.20;99.90
19232;DHT22;9750;48.730;10.294;2023-04-01T00:03:27;9.20;99.90
19232;DHT22;9750;48.730;10.294;2023-04-01T00:05:57;9.20;99.90
19232;DHT22;9750;48.730;10.294;2023-04-01T00:08:46;9.20;99.90
19232;DHT22;9750;48.730;10.294;2023-04-01T00:11:13;9.10;99.90
19232;DHT22;9750;48.730;10.294;2023-04-01T00:13:41;9.10;99.90
19232;DHT22;9750;48.730;10.294;2023-04-01T00:16:08;9.10;99.90
19232;DHT22;9750;48.730;10.294;2023-04-01T00:18:36;9.10;99.90
19232;DHT22;9750;48.730;10.294;2023-04-01T00:21:05;9.00;99.90
19232;DHT22;9750;48.730;10.294;2023-04-01T00:23:32;9.00;99.90
19232;DHT22;9750;48.730;10.294;2023-04-01T00:26:01;9.00;99.90
19232;DHT22;9750;48.730;10.294;2023-04-01T00:28:29;9.00;99.90
19232;DHT22;9750;48.730;10.294;2023-04-01T00:30:56;8.90;99.90
19232;DHT22;9750;48.730;10.294;2023-04-01T00:33:24;9.00;99.90
19232;DHT22;9750;48.730;10.294;2023-04-01T00:35:51;8.90;99.90
19232;DHT22;9750;48.730;10.294;2023-04-01T00:38:19;8.90;99.90
19232;DHT22;9750;48.730;10.294;2023-04-01T00:40:47;8.90;99.90
19232;DHT22;9750;48.730;10.294;2023-04-01T00:43:16;8.90;99.90
19232;DHT22;9750;48.730;10.294;2023-04-01T00:45:47;8.90;99.90
19232;DHT22;9750;48.730;10.294;2023-04-01T00:48:17;8.90;99.90
19232;DHT22;9750;48.730;10.294;2023-04-01T00:50:49;8.90;99.90
19232;DHT22;9750;48.730;10.294;2023-04-01T00:53:19;8.90;99.90
19232;DHT22;9750;48.730;10.294;2023-04-01T00:55:51;9.00;99.90
19232;DHT22;9750;48.730;10.294;2023-04-01T00:58:22;9.00;99.90
19232;DHT22;9750;48.730;10.294;2023-04-01T01:00:51;9.00;99.90
19232;DHT22;9750;48.730;10.294;2023-04-01T01:03:19;8.90;99.90
19232;DHT22;9750;48.730;10.294;2023-04-01T01:06:00;8.90;99.90
19232;DHT22;9750;48.730;10.294;2023-04-01T01:08:47;8.90;99.90
19232;DHT22;9750;48.730;10.294;2023-04-01T01:11:25;8.90;99.90
19232;DHT22;9750;48.730;10.294;2023-04-01T01:14:00;8.90;99.90
19232;DHT22;9750;48.730;10.294;2023-04-01T01:16:30;9.00;99.90
19232;DHT22;9750;48.730;10.294;2023-04-01T01:19:08;8.90;99.90
19232;DHT22;9750;48.730;10.294;2023-04-01T01:21:55;8.90;99.90
19232;DHT22;9750;48.730;10.294;2023-04-01T01:24:42;8.90;99.90
19232;DHT22;9750;48.730;10.294;2023-04-01T01:27:16;8.90;99.90
19232;DHT22;9750;48.730;10.294;2023-04-01T01:30:00;8.90;99.90
19232;DHT22;9750;48.730;10.294;2023-04-01T01:32:52;8.90;99.90
19232;DHT22;9750;48.730;10.294;2023-04-01T01:35:26;8.90;99.90
19232;DHT22;9750;48.730;10.294;2023-04-01T01:41:18;8.90;99.90
19232;DHT22;9750;48.730;10.294;2023-04-01T01:43:48;8.90;99.90
19232;DHT22;9750;48.730;10.294;2023-04-01T01:46:20;8.90;99.90
19232;DHT22;9750;48.730;10.294;2023-04-01T01:48:50;8.90;99.90
19232;DHT22;9750;48.730;10.294;2023-04-01T01:51:20;8.90;99.90
19232;DHT22;9750;48.730;10.294;2023-04-01T01:53:48;8.90;99.90
19232;DHT22;9750;48.730;10.294;2023-04-01T01:56:18;9.00;99.90
19232;DHT22;9750;48.730;10.294;2023-04-01T01:58:49;9.00;99.90
19232;DHT22;9750;48.730;10.294;2023-04-01T02:01:21;9.00;99.90
19232;DHT22;9750;48.730;10.294;2023-04-01T02:03:50;9.00;99.90
19232;DHT22;9750;48.730;10.294;2023-04-01T02:06:22;9.00;99.90
19232;DHT22;9750;48.730;10.294;2023-04-01T02:08:52;9.00;99.90
19232;DHT22;9750;48.730;10.294;2023-04-01T02:11:25;9.00;99.90
19232;DHT22;9750;48.730;10.294;2023-04-01T02:13:56;8.90;99.90
19232;DHT22;9750;48.730;10.294;2023-04-01T02:16:30;8.90;99.90
19232;DHT22;9750;48.730;10.294;2023-04-01T02:18:59;8.90;99.90
19232;DHT22;9750;48.730;10.294;2023-04-01T02:21:31;8.90;99.90
19232;DHT22;9750;48.730;10.294;2023-04-01T02:24:02;8.90;99.90
19232;DHT22;9750;48.730;10.294;2023-04-01T02:26:30;8.90;99.90
19232;DHT22;9750;48.730;10.294;2023-04-01T02:28:58;8.90;99.90
19232;DHT22;9750;48.730;10.294;2023-04-01T02:31:27;8.90;99.90
19232;DHT22;9750;48.730;10.294;2023-04-01T02:33:54;8.90;99.90
19232;DHT22;9750;48.730;10.294;2023-04-01T02:36:22;8.90;99.90
19232;DHT22;9750;48.730;10.294;2023-04-01T02:38:51;8.90;99.90
19232;DHT22;9750;48.730;10.294;2023-04-01T02:41:20;8.90;99.90
19232;DHT22;9750;48.730;10.294;2023-04-01T02:43:47;8.90;99.90
19232;DHT22;9750;48.730;10.294;2023-04-01T02:46:14;9.00;99.90
19232;DHT22;9750;48.730;10.294;2023-04-01T02:48:42;9.00;99.90
19232;DHT22;9750;48.730;10.294;2023-04-01T02:51:09;9.00;99.90
19232;DHT22;9750;48.730;10.294;2023-04-01T02:53:36;9.00;99.90
19232;DHT22;9750;48.730;10.294;2023-04-01T02:56:05;9.00;99.90
19232;DHT22;9750;48.730;10.294;2023-04-01T02:58:33;9.00;99.90
19232;DHT22;9750;48.730;10.294;2023-04-01T03:01:00;8.90;99.90
19232;DHT22;9750;48.730;10.294;2023-04-01T03:03:27;8.90;99.90
19232;DHT22;9750;48.730;10.294;2023-04-01T03:05:55;8.90;99.90
19232;DHT22;9750;48.730;10.294;2023-04-01T03:08:24;8.90;99.90
19232;DHT22;9750;48.730;10.294;2023-04-01T03:10:51;8.90;99.90
19232;DHT22;9750;48.730;10.294;2023-04-01T03:13:20;8.90;99.90
19232;DHT22;9750;48.730;10.294;2023-04-01T03:15:48;8.90;99.90
19232;DHT22;9750;48.730;10.294;2023-04-01T03:18:15;8.90;99.90
19232;DHT22;9750;48.730;10.294;2023-04-01T03:20:42;8.90;99.90
19232;DHT22;9750;48.730;10.294;2023-04-01T03:23:09;8.90;99.90
19232;DHT22;9750;48.730;10.294;2023-04-01T03:25:37;8.90;99.90
19232;DHT22;9750;48.730;10.294;2023-04-01T03:28:10;8.90;99.90
19232;DHT22;9750;48.730;10.294;2023-04-01T03:30:39;8.90;99.90
19232;DHT22;9750;48.730;10.294;2023-04-01T03:33:07;9.00;99.90
19232;DHT22;9750;48.730;10.294;2023-04-01T03:35:34;9.00;99.90
19232;DHT22;9750;48.730;10.294;2023-04-01T03:38:01;8.90;99.90
19232;DHT22;9750;48.730;10.294;2023-04-01T03:40:29;9.00;99.90
19232;DHT22;9750;48.730;10.294;2023-04-01T03:42:56;8.90;99.90
19232;DHT22;9750;48.730;10.294;2023-04-01T03:45:23;8.90;99.90
19232;DHT22;9750;48.730;10.294;2023-04-01T03:47:52;8.70;99.90
19232;DHT22;9750;48.730;10.294;2023-04-01T03:50:19;8.80;99.90
19232;DHT22;9750;48.730;10.294;2023-04-01T03:52:46;8.80;99.90
19232;DHT22;9750;48.730;10.294;2023-04-01T03:55:14;8.80;99.90
19232;DHT22;9750;48.730;10.294;2023-04-01T03:57:41;8.80;99.90
19232;DHT22;9750;48.730;10.294;2023-04-01T04:00:09;8.80;99.90
19232;DHT22;9750;48.730;10.294;2023-04-01T04:02:36;8.80;99.90
19232;DHT22;9750;48.730;10.294;2023-04-01T04:05:06;8.80;99.90
19232;DHT22;9750;48.730;10.294;2023-04-01T04:07:34;8.80;99.90
19232;DHT22;9750;48.730;10.294;2023-04-01T04:10:02;8.80;99.90
19232;DHT22;9750;48.730;10.294;2023-04-01T04:12:29;8.80;99.90
19232;DHT22;9750;48.730;10.294;2023-04-01T04:14:56;8.80;99.90
19232;DHT22;9750;48.730;10.294;2023-04-01T04:17:23;8.80;99.90
19232;DHT22;9750;48.730;10.294;2023-04-01T04:19:51;8.80;99.90
19232;DHT22;9750;48.730;10.294;2023-04-01T04:22:20;8.80;99.90
19232;DHT22;9750;48.730;10.294;2023-04-01T04:24:47;8.80;99.90
19232;DHT22;9750;48.730;10.294;2023-04-01T04:27:15;8.80;99.90
19232;DHT22;9750;48.730;10.294;2023-04-01T04:29:42;8.80;99.90
19232;DHT22;9750;48.730;10.294;2023-04-01T04:32:09;8.80;99.90
19232;DHT22;9750;48.730;10.294;2023-04-01T04:34:37;8.80;99.90
19232;DHT22;9750;48.730;10.294;2023-04-01T04:37:04;8.80;99.90
19232;DHT22;9750;48.730;10.294;2023-04-01T04:39:33;8.80;99.90
19232;DHT22;9750;48.730;10.294;2023-04-01T04:42:00;8.80;99.90
19232;DHT22;9750;48.730;10.294;2023-04-01T04:44:27;8.80;99.90
19232;DHT22;9750;48.730;10.294;2023-04-01T04:46:55;8.80;99.90
19232;DHT22;9750;48.730;10.294;2023-04-01T04:49:22;8.80;99.90
19232;DHT22;9750;48.730;10.294;2023-04-01T04:51:49;8.90;99.90
19232;DHT22;9750;48.730;10.294;2023-04-01T04:54:18;8.80;99.90
19232;DHT22;9750;48.730;10.294;2023-04-01T04:56:46;8.80;99.90
19232;DHT22;9750;48.730;10.294;2023-04-01T04:59:14;8.70;99.90
19232;DHT22;9750;48.730;10.294;2023-04-01T05:01:41;8.70;99.90
19232;DHT22;9750;48.730;10.294;2023-04-01T05:04:08;8.70;99.90
19232;DHT22;9750;48.730;10.294;2023-04-01T05:06:35;8.60;99.90
19232;DHT22;9750;48.730;10.294;2023-04-01T05:09:03;8.70;99.90
19232;DHT22;9750;48.730;10.294;2023-04-01T05:11:30;8.60;99.90
19232;DHT22;9750;48.730;10.294;2023-04-01T05:13:59;8.60;99.90
19232;DHT22;9750;48.730;10.294;2023-04-01T05:19:39;8.60;99.90
19232;DHT22;9750;48.730;10.294;2023-04-01T05:22:07;8.60;99.90
19232;DHT22;9750;48.730;10.294;2023-04-01T05:24:34;8.60;99.90
19232;DHT22;9750;48.730;10.294;2023-04-01T05:27:01;8.60;99.90
19232;DHT22;9750;48.730;10.294;2023-04-01T05:29:30;8.70;99.90
19232;DHT22;9750;48.730;10.294;2023-04-01T05:31:57;8.70;99.90
19232;DHT22;9750;48.730;10.294;2023-04-01T05:34:24;8.70;99.70
19232;DHT22;9750;48.730;10.294;2023-04-01T05:36:51;8.70;99.70
19232;DHT22;9750;48.730;10.294;2023-04-01T05:39:19;8.70;99.60
19232;DHT22;9750;48.730;10.294;2023-04-01T05:41:46;8.70;99.50
19232;DHT22;9750;48.730;10.294;2023-04-01T05:44:13;8.70;99.50
19232;DHT22;9750;48.730;10.294;2023-04-01T05:46:42;8.70;99.50
19232;DHT22;9750;48.730;10.294;2023-04-01T05:49:09;8.70;99.50
19232;DHT22;9750;48.730;10.294;2023-04-01T05:51:36;8.80;99.60
19232;DHT22;9750;48.730;10.294;2023-04-01T05:54:04;8.80;99.40
19232;DHT22;9750;48.730;10.294;2023-04-01T05:56:32;8.80;99.10
19232;DHT22;9750;48.730;10.294;2023-04-01T05:58:59;8.80;99.40
19232;DHT22;9750;48.730;10.294;2023-04-01T06:01:26;8.90;99.40
19232;DHT22;9750;48.730;10.294;2023-04-01T06:03:55;8.90;99.50
19232;DHT22;9750;48.730;10.294;2023-04-01T06:06:24;9.00;99.10
19232;DHT22;9750;48.730;10.294;2023-04-01T06:08:52;9.00;99.10
19232;DHT22;9750;48.730;10.294;2023-04-01T06:11:28;9.00;99.20
19232;DHT22;9750;48.730;10.294;2023-04-01T06:14:10;8.90;99.20
19232;DHT22;9750;48.730;10.294;2023-04-01T06:16:49;9.00;99.60
19232;DHT22;9750;48.730;10.294;2023-04-01T06:19:36;9.00;99.40
19232;DHT22;9750;48.730;10.294;2023-04-01T06:22:27;9.20;99.50
19232;DHT22;9750;48.730;10.294;2023-04-01T06:25:12;9.30;99.90
19232;DHT22;9750;48.730;10.294;2023-04-01T06:31:07;9.40;99.30
19232;DHT22;9750;48.730;10.294;2023-04-01T06:33:55;9.50;99.20
19232;DHT22;9750;48.730;10.294;2023-04-01T06:36:59;9.60;99.50
19232;DHT22;9750;48.730;10.294;2023-04-01T06:39:47;9.60;98.90
19232;DHT22;9750;48.730;10.294;2023-04-01T06:42:41;9.60;98.80
19232;DHT22;9750;48.730;10.294;2023-04-01T06:45:20;9.60;99.20
19232;DHT22;9750;48.730;10.294;2023-04-01T06:48:09;9.60;99.30
19232;DHT22;9750;48.730;10.294;2023-04-01T06:50:44;9.70;99.00
19232;DHT22;9750;48.730;10.294;2023-04-01T06:53:19;9.80;99.20
19232;DHT22;9750;48.730;10.294;2023-04-01T06:55:52;9.80;98.60
19232;DHT22;9750;48.730;10.294;2023-04-01T07:01:46;9.80;98.90
19232;DHT22;9750;48.730;10.294;2023-04-01T07:04:16;9.90;98.30
19232;DHT22;9750;48.730;10.294;2023-04-01T07:06:48;9.90;98.50
19232;DHT22;9750;48.730;10.294;2023-04-01T07:09:20;9.90;98.50
19232;DHT22;9750;48.730;10.294;2023-04-01T07:11:50;10.00;98.40
19232;DHT22;9750;48.730;10.294;2023-04-01T07:14:20;10.00;98.20
19232;DHT22;9750;48.730;10.294;2023-04-01T07:16:53;10.00;97.90
19232;DHT22;9750;48.730;10.294;2023-04-01T07:19:28;10.10;97.70
19232;DHT22;9750;48.730;10.294;2023-04-01T07:22:00;10.10;97.40
19232;DHT22;9750;48.730;10.294;2023-04-01T07:24:34;10.10;96.90
19232;DHT22;9750;48.730;10.294;2023-04-01T07:27:01;10.10;97.50
19232;DHT22;9750;48.730;10.294;2023-04-01T07:29:29;10.10;97.00
19232;DHT22;9750;48.730;10.294;2023-04-01T07:32:26;10.10;96.60
19232;DHT22;9750;48.730;10.294;2023-04-01T07:35:10;10.10;97.20
19232;DHT22;9750;48.730;10.294;2023-04-01T07:37:45;10.10;96.70
19232;DHT22;9750;48.730;10.294;2023-04-01T07:40:28;10.10;96.90
19232;DHT22;9750;48.730;10.294;2023-04-01T07:43:07;10.00;96.90
19232;DHT22;9750;48.730;10.294;2023-04-01T07:45:42;10.00;97.10
19232;DHT22;9750;48.730;10.294;2023-04-01T07:48:21;10.00;96.90
19232;DHT22;9750;48.730;10.294;2023-04-01T07:50:56;9.90;96.70
19232;DHT22;9750;48.730;10.294;2023-04-01T07:53:33;9.90;97.10
19232;DHT22;9750;48.730;10.294;2023-04-01T07:56:07;9.90;97.40
19232;DHT22;9750;48.730;10.294;2023-04-01T07:58:44;10.00;97.30
19232;DHT22;9750;48.730;10.294;2023-04-01T08:01:23;10.00;97.20
19232;DHT22;9750;48.730;10.294;2023-04-01T08:04:09;10.00;97.30
19232;DHT22;9750;48.730;10.294;2023-04-01T08:06:47;10.00;98.10
19232;DHT22;9750;48.730;10.294;2023-04-01T08:09:23;10.00;98.00
19232;DHT22;9750;48.730;10.294;2023-04-01T08:12:02;10.10;98.40
19232;DHT22;9750;48.730;10.294;2023-04-01T08:14:36;10.10;98.10
19232;DHT22;9750;48.730;10.294;2023-04-01T08:17:14;10.10;98.40
19232;DHT22;9750;48.730;10.294;2023-04-01T08:19:54;10.10;98.40
19232;DHT22;9750;48.730;10.294;2023-04-01T08:22:26;10.20;98.80
19232;DHT22;9750;48.730;10.294;2023-04-01T08:24:56;10.20;98.90
19232;DHT22;9750;48.730;10.294;2023-04-01T08:27:35;10.30;99.00
19232;DHT22;9750;48.730;10.294;2023-04-01T08:30:06;10.30;99.30
19232;DHT22;9750;48.730;10.294;2023-04-01T08:32:44;10.30;98.80
19232;DHT22;9750;48.730;10.294;2023-04-01T08:35:19;10.30;98.60
19232;DHT22;9750;48.730;10.294;2023-04-01T08:37:48;10.30;99.00
19232;DHT22;9750;48.730;10.294;2023-04-01T08:40:37;10.40;99.20
19232;DHT22;9750;48.730;10.294;2023-04-01T08:43:14;10.40;98.40
19232;DHT22;9750;48.730;10.294;2023-04-01T08:46:00;10.40;99.00
19232;DHT22;9750;48.730;10.294;2023-04-01T08:48:53;10.40;98.40
19232;DHT22;9750;48.730;10.294;2023-04-01T08:51:53;10.40;98.90
19232;DHT22;9750;48.730;10.294;2023-04-01T08:54:56;10.40;98.70
19232;DHT22;9750;48.730;10.294;2023-04-01T08:57:38;10.40;99.10
19232;DHT22;9750;48.730;10.294;2023-04-01T09:00:15;10.40;99.80
19232;DHT22;9750;48.730;10.294;2023-04-01T09:06:11;10.50;99.90
19232;DHT22;9750;48.730;10.294;2023-04-01T09:08:57;10.60;99.10
19232;DHT22;9750;48.730;10.294;2023-04-01T09:11:38;10.70;99.90
19232;DHT22;9750;48.730;10.294;2023-04-01T09:14:30;10.70;99.20
19232;DHT22;9750;48.730;10.294;2023-04-01T09:20:19;10.80;99.40
19232;DHT22;9750;48.730;10.294;2023-04-01T09:23:21;10.80;99.90
19232;DHT22;9750;48.730;10.294;2023-04-01T09:26:08;10.80;99.70
19232;DHT22;9750;48.730;10.294;2023-04-01T09:28:43;10.70;99.80
19232;DHT22;9750;48.730;10.294;2023-04-01T09:31:26;10.60;99.70
19232;DHT22;9750;48.730;10.294;2023-04-01T09:34:27;10.60;99.60
19232;DHT22;9750;48.730;10.294;2023-04-01T09:37:19;10.50;99.80
19232;DHT22;9750;48.730;10.294;2023-04-01T09:40:15;10.50;99.90
19232;DHT22;9750;48.730;10.294;2023-04-01T09:42:53;10.60;99.90
19232;DHT22;9750;48.730;10.294;2023-04-01T09:45:43;10.60;99.90
19232;DHT22;9750;48.730;10.294;2023-04-01T09:48:37;10.60;99.90
19232;DHT22;9750;48.730;10.294;2023-04-01T09:51:17;10.60;99.90
19232;DHT22;9750;48.730;10.294;2023-04-01T09:54:00;10.50;99.90
19232;DHT22;9750;48.730;10.294;2023-04-01T09:57:00;10.50;99.90
19232;DHT22;9750;48.730;10.294;2023-04-01T10:03:01;10.60;99.90
19232;DHT22;9750;48.730;10.294;2023-04-01T10:06:25;10.60;99.90
19232;DHT22;9750;48.730;10.294;2023-04-01T10:09:29;10.70;99.90
19232;DHT22;9750;48.730;10.294;2023-04-01T10:22:04;10.60;99.90
19232;DHT22;9750;48.730;10.294;2023-04-01T10:24:54;10.50;99.90
19232;DHT22;9750;48.730;10.294;2023-04-01T10:27:55;10.50;99.90
19232;DHT22;9750;48.730;10.294;2023-04-01T10:30:58;10.50;99.90
19232;DHT22;9750;48.730;10.294;2023-04-01T10:36:53;10.70;99.50
19232;DHT22;9750;48.730;10.294;2023-04-01T10:39:45;10.70;98.80
19232;DHT22;9750;48.730;10.294;2023-04-01T10:45:46;10.80;99.20
19232;DHT22;9750;48.730;10.294;2023-04-01T10:48:41;10.80;98.70
19232;DHT22;9750;48.730;10.294;2023-04-01T10:51:16;10.80;99.50
19232;DHT22;9750;48.730;10.294;2023-04-01T10:54:20;10.80;99.20
19232;DHT22;9750;48.730;10.294;2023-04-01T10:57:11;10.90;99.30
19232;DHT22;9750;48.730;10.294;2023-04-01T11:06:26;11.00;99.40
19232;DHT22;9750;48.730;10.294;2023-04-01T11:15:31;11.30;99.90
19232;DHT22;9750;48.730;10.294;2023-04-01T11:21:49;11.50;98.80
19232;DHT22;9750;48.730;10.294;2023-04-01T11:24:34;11.50;98.20
19232;DHT22;9750;48.730;10.294;2023-04-01T11:27:18;11.60;99.50
19232;DHT22;9750;48.730;10.294;2023-04-01T11:30:07;11.70;98.30
19232;DHT22;9750;48.730;10.294;2023-04-01T11:32:46;11.80;98.30
19232;DHT22;9750;48.730;10.294;2023-04-01T11:35:40;11.80;98.50
19232;DHT22;9750;48.730;10.294;2023-04-01T11:38:26;11.70;97.90
19232;DHT22;9750;48.730;10.294;2023-04-01T11:41:02;11.60;98.20
19232;DHT22;9750;48.730;10.294;2023-04-01T11:43:42;11.60;98.30
19232;DHT22;9750;48.730;10.294;2023-04-01T11:46:19;11.50;98.60
19232;DHT22;9750;48.730;10.294;2023-04-01T11:48:55;11.60;99.40
19232;DHT22;9750;48.730;10.294;2023-04-01T11:51:47;11.60;98.60
19232;DHT22;9750;48.730;10.294;2023-04-01T11:54:32;11.50;98.90
19232;DHT22;9750;48.730;10.294;2023-04-01T11:57:14;11.40;99.00
19232;DHT22;9750;48.730;10.294;2023-04-01T11:59:59;11.30;98.60
19232;DHT22;9750;48.730;10.294;2023-04-01T12:02:36;11.20;98.90
19232;DHT22;9750;48.730;10.294;2023-04-01T12:05:26;11.20;99.30
19232;DHT22;9750;48.730;10.294;2023-04-01T12:08:08;11.30;98.80
19232;DHT22;9750;48.730;10.294;2023-04-01T12:10:40;11.40;99.50
19232;DHT22;9750;48.730;10.294;2023-04-01T12:13:18;11.40;98.60
19232;DHT22;9750;48.730;10.294;2023-04-01T12:15:58;11.40;99.00
19232;DHT22;9750;48.730;10.294;2023-04-01T12:18:35;11.40;99.70
19232;DHT22;9750;48.730;10.294;2023-04-01T12:21:11;11.40;99.40
19232;DHT22;9750;48.730;10.294;2023-04-01T12:23:57;11.50;99.50
19232;DHT22;9750;48.730;10.294;2023-04-01T12:26:39;11.60;99.90
19232;DHT22;9750;48.730;10.294;2023-04-01T12:29:26;11.60;98.90
19232;DHT22;9750;48.730;10.294;2023-04-01T12:32:09;11.70;99.60
19232;DHT22;9750;48.730;10.294;2023-04-01T12:34:54;11.70;99.30
19232;DHT22;9750;48.730;10.294;2023-04-01T12:37:30;11.80;98.90
19232;DHT22;9750;48.730;10.294;2023-04-01T12:40:17;11.80;99.90
19232;DHT22;9750;48.730;10.294;2023-04-01T12:43:03;11.90;99.20
19232;DHT22;9750;48.730;10.294;2023-04-01T12:45:33;11.90;99.10
19232;DHT22;9750;48.730;10.294;2023-04-01T12:51:34;12.10;99.00
19232;DHT22;9750;48.730;10.294;2023-04-01T12:54:35;12.20;99.40
19232;DHT22;9750;48.730;10.294;2023-04-01T12:57:18;12.10;98.60
19232;DHT22;9750;48.730;10.294;2023-04-01T13:00:03;12.10;99.30
19232;DHT22;9750;48.730;10.294;2023-04-01T13:02:49;12.20;99.90
19232;DHT22;9750;48.730;10.294;2023-04-01T13:05:36;12.30;99.90
19232;DHT22;9750;48.730;10.294;2023-04-01T13:11:28;12.30;98.90
19232;DHT22;9750;48.730;10.294;2023-04-01T13:14:18;12.10;98.50
19232;DHT22;9750;48.730;10.294;2023-04-01T13:16:55;12.10;98.90
19232;DHT22;9750;48.730;10.294;2023-04-01T13:19:27;12.00;98.90
19232;DHT22;9750;48.730;10.294;2023-04-01T13:22:03;12.10;98.90
19232;DHT22;9750;48.730;10.294;2023-04-01T13:24:40;12.20;99.10
19232;DHT22;9750;48.730;10.294;2023-04-01T13:27:14;12.30;98.30
19232;DHT22;9750;48.730;10.294;2023-04-01T13:29:49;12.40;99.10
19232;DHT22;9750;48.730;10.294;2023-04-01T13:32:26;12.50;98.10
19232;DHT22;9750;48.730;10.294;2023-04-01T13:35:06;12.50;97.90
19232;DHT22;9750;48.730;10.294;2023-04-01T13:37:49;12.50;98.00
19232;DHT22;9750;48.730;10.294;2023-04-01T13:40:30;12.60;97.90
19232;DHT22;9750;48.730;10.294;2023-04-01T13:43:03;12.70;98.20
19232;DHT22;9750;48.730;10.294;2023-04-01T13:45:42;12.80;97.30
19232;DHT22;9750;48.730;10.294;2023-04-01T13:48:33;12.80;97.10
19232;DHT22;9750;48.730;10.294;2023-04-01T13:51:40;12.80;97.60
19232;DHT22;9750;48.730;10.294;2023-04-01T13:54:41;12.70;96.60
19232;DHT22;9750;48.730;10.294;2023-04-01T13:57:28;12.60;96.60
19232;DHT22;9750;48.730;10.294;2023-04-01T14:00:38;12.70;96.80
19232;DHT22;9750;48.730;10.294;2023-04-01T14:03:30;12.80;96.90
19232;DHT22;9750;48.730;10.294;2023-04-01T14:06:17;12.80;96.70
19232;DHT22;9750;48.730;10.294;2023-04-01T14:09:00;12.70;96.50
19232;DHT22;9750;48.730;10.294;2023-04-01T14:11:37;12.70;97.50
19232;DHT22;9750;48.730;10.294;2023-04-01T14:14:17;12.60;96.90
19232;DHT22;9750;48.730;10.294;2023-04-01T14:17:03;12.60;96.60
19232;DHT22;9750;48.730;10.294;2023-04-01T14:20:02;12.60;97.50
19232;DHT22;9750;48.730;10.294;2023-04-01T14:22:38;12.70;97.00
19232;DHT22;9750;48.730;10.294;2023-04-01T14:25:34;12.90;96.80
19232;DHT22;9750;48.730;10.294;2023-04-01T14:28:15;12.80;96.50
19232;DHT22;9750;48.730;10.294;2023-04-01T14:30:59;12.90;96.40
19232;DHT22;9750;48.730;10.294;2023-04-01T14:33:40;12.90;95.80
19232;DHT22;9750;48.730;10.294;2023-04-01T14:36:31;12.90;95.90
19232;DHT22;9750;48.730;10.294;2023-04-01T14:42:06;12.80;96.60
19232;DHT22;9750;48.730;10.294;2023-04-01T14:44:46;12.80;96.50
19232;DHT22;9750;48.730;10.294;2023-04-01T14:47:42;12.80;97.10
19232;DHT22;9750;48.730;10.294;2023-04-01T14:50:14;12.80;96.30
19232;DHT22;9750;48.730;10.294;2023-04-01T14:52:44;12.80;96.40
19232;DHT22;9750;48.730;10.294;2023-04-01T14:55:31;12.70;96.40
19232;DHT22;9750;48.730;10.294;2023-04-01T14:58:12;12.70;96.30
19232;DHT22;9750;48.730;10.294;2023-04-01T15:00:50;12.50;96.40
19232;DHT22;9750;48.730;10.294;2023-04-01T15:03:22;12.50;97.00
19232;DHT22;9750;48.730;10.294;2023-04-01T15:05:56;12.50;97.40
19232;DHT22;9750;48.730;10.294;2023-04-01T15:08:29;12.60;97.30
19232;DHT22;9750;48.730;10.294;2023-04-01T15:11:23;12.50;96.20
19232;DHT22;9750;48.730;10.294;2023-04-01T15:14:15;12.40;96.20
19232;DHT22;9750;48.730;10.294;2023-04-01T15:16:53;12.20;96.60
19232;DHT22;9750;48.730;10.294;2023-04-01T15:19:31;12.20;96.00
19232;DHT22;9750;48.730;10.294;2023-04-01T15:22:32;12.00;95.70
19232;DHT22;9750;48.730;10.294;2023-04-01T15:25:29;12.00;96.30
19232;DHT22;9750;48.730;10.294;2023-04-01T15:28:03;12.00;96.90
19232;DHT22;9750;48.730;10.294;2023-04-01T15:30:34;12.10;96.90
19232;DHT22;9750;48.730;10.294;2023-04-01T15:33:37;12.20;96.60
19232;DHT22;9750;48.730;10.294;2023-04-01T15:36:15;12.10;95.90
19232;DHT22;9750;48.730;10.294;2023-04-01T15:38:48;12.00;95.60
19232;DHT22;9750;48.730;10.294;2023-04-01T15:41:16;11.90;96.40
19232;DHT22;9750;48.730;10.294;2023-04-01T15:43:49;11.80;96.10
19232;DHT22;9750;48.730;10.294;2023-04-01T15:46:41;11.80;96.60
19232;DHT22;9750;48.730;10.294;2023-04-01T15:49:24;11.70;96.40
19232;DHT22;9750;48.730;10.294;2023-04-01T15:52:05;11.70;96.30
19232;DHT22;9750;48.730;10.294;2023-04-01T15:54:52;11.60;96.00
19232;DHT22;9750;48.730;10.294;2023-04-01T16:00:49;11.60;96.60
19232;DHT22;9750;48.730;10.294;2023-04-01T16:03:33;11.60;96.30
19232;DHT22;9750;48.730;10.294;2023-04-01T16:06:41;11.60;96.40
19232;DHT22;9750;48.730;10.294;2023-04-01T16:09:24;11.70;96.10
19232;DHT22;9750;48.730;10.294;2023-04-01T16:12:04;11.60;96.30
19232;DHT22;9750;48.730;10.294;2023-04-01T16:14:40;11.70;96.60
19232;DHT22;9750;48.730;10.294;2023-04-01T16:20:18;11.60;96.10
19232;DHT22;9750;48.730;10.294;2023-04-01T16:22:53;11.60;95.90
19232;DHT22;9750;48.730;10.294;2023-04-01T16:25:32;11.50;95.90
19232;DHT22;9750;48.730;10.294;2023-04-01T16:28:14;11.40;96.20
19232;DHT22;9750;48.730;10.294;2023-04-01T16:30:48;11.30;95.90
19232;DHT22;9750;48.730;10.294;2023-04-01T16:33:22;11.30;96.10
19232;DHT22;9750;48.730;10.294;2023-04-01T16:35:57;11.30;96.00
19232;DHT22;9750;48.730;10.294;2023-04-01T16:38:35;11.20;96.10
19232;DHT22;9750;48.730;10.294;2023-04-01T16:41:11;11.20;96.00
19232;DHT22;9750;48.730;10.294;2023-04-01T16:43:43;11.10;96.40
19232;DHT22;9750;48.730;10.294;2023-04-01T16:46:33;11.10;96.00
19232;DHT22;9750;48.730;10.294;2023-04-01T16:49:17;11.00;96.40
19232;DHT22;9750;48.730;10.294;2023-04-01T16:51:53;11.00;96.30
19232;DHT22;9750;48.730;10.294;2023-04-01T16:54:29;10.80;96.70
19232;DHT22;9750;48.730;10.294;2023-04-01T16:57:10;10.80;96.70
19232;DHT22;9750;48.730;10.294;2023-04-01T16:59:47;10.80;96.70
19232;DHT22;9750;48.730;10.294;2023-04-01T17:02:24;10.80;96.80
19232;DHT22;9750;48.730;10.294;2023-04-01T17:04:57;10.80;96.90
19232;DHT22;9750;48.730;10.294;2023-04-01T17:07:37;10.80;97.10
19232;DHT22;9750;48.730;10.294;2023-04-01T17:10:28;10.80;97.30
19232;DHT22;9750;48.730;10.294;2023-04-01T17:16:06;10.80;97.60
19232;DHT22;9750;48.730;10.294;2023-04-01T17:18:40;10.80;97.30
19232;DHT22;9750;48.730;10.294;2023-04-01T17:21:17;10.70;97.60
19232;DHT22;9750;48.730;10.294;2023-04-01T17:23:51;10.70;98.30
19232;DHT22;9750;48.730;10.294;2023-04-01T17:26:30;10.70;97.70
19232;DHT22;9750;48.730;10.294;2023-04-01T17:29:05;10.60;98.00
19232;DHT22;9750;48.730;10.294;2023-04-01T17:31:45;10.60;98.00
19232;DHT22;9750;48.730;10.294;2023-04-01T17:34:26;10.60;98.10
19232;DHT22;9750;48.730;10.294;2023-04-01T17:37:15;10.50;97.90
19232;DHT22;9750;48.730;10.294;2023-04-01T17:40:00;10.50;98.20
19232;DHT22;9750;48.730;10.294;2023-04-01T17:42:40;10.50;98.00
19232;DHT22;9750;48.730;10.294;2023-04-01T17:45:16;10.50;98.10
19232;DHT22;9750;48.730;10.294;2023-04-01T17:47:58;10.40;97.60
19232;DHT22;9750;48.730;10.294;2023-04-01T17:50:46;10.40;98.00
19232;DHT22;9750;48.730;10.294;2023-04-01T17:53:22;10.40;97.80
19232;DHT22;9750;48.730;10.294;2023-04-01T17:56:02;10.50;97.90